Time;durP1;ratioP1;P1;durP2;ratioP2;P2;SDS_P1;SDS_P2;PMS_P1;PMS_P2;Temp;Humidity;BMP_temperature;BMP_pressure;BME280_temperature;BME280_humidity;BME280_pressure;Samples;Min_cycle;Max_cycle;Signal;HPM_P1;HPM_P2
2022/01/30 00:01:25;;;;;;;;;5.50;3.50;;;;;16.68;70.82;102861.47;5097731;27;61868;-86
2022/01/30 00:03:50;;;;;;;;;4.00;3.25;;;;;16.70;70.68;102853.59;5082643;27;61926;-85
2022/01/30 00:06:16;;;;;;;;;5.00;3.25;;;;;16.77;70.63;102867.28;5079615;27;62226;-83
2022/01/30 00:08:41;;;;;;;;;5.50;5.00;;;;;16.73;70.75;102873.25;5085325;27;61899;-86
2022/01/30 00:11:14;;;;;;;;;6.25;3.00;;;;;16.70;70.96;102877.47;5082223;27;61836;-84
2022/01/30 00:13:40;;;;;;;;;4.00;2.50;;;;;16.80;70.84;102873.56;5082367;27;61719;-83
2022/01/30 00:16:09;;;;;;;;;3.75;2.00;;;;;16.79;70.69;102866.44;5081541;27;62072;-83
2022/01/30 00:23:59;;;;;;;;;5.00;5.00;;;;;16.89;70.56;102879.38;5085088;27;61989;-83
2022/01/30 00:26:31;;;;;;;;;6.25;5.00;;;;;16.87;70.54;102857.16;5083196;28;64991;-85
2022/01/30 00:28:57;;;;;;;;;3.75;3.75;;;;;16.91;70.75;102864.47;5085347;27;61768;-84
2022/01/30 00:31:24;;;;;;;;;7.00;4.75;;;;;16.89;70.55;102860.81;5083956;28;61994;-85
2022/01/30 00:33:50;;;;;;;;;6.00;4.00;;;;;16.88;70.37;102862.56;5085399;27;61895;-84
2022/01/30 00:36:16;;;;;;;;;5.00;5.00;;;;;16.88;70.25;102856.31;5084631;27;62906;-84
2022/01/30 00:38:42;;;;;;;;;4.25;2.50;;;;;16.82;70.38;102856.94;5082984;28;61965;-84
2022/01/30 00:41:08;;;;;;;;;5.50;5.50;;;;;16.73;70.63;102865.28;5085378;27;61931;-84
2022/01/30 00:43:34;;;;;;;;;7.50;3.00;;;;;16.64;70.98;102851.53;5085064;27;62042;-84
2022/01/30 00:45:59;;;;;;;;;4.25;3.00;;;;;16.67;70.48;102850.81;5084625;27;61835;-85
2022/01/30 00:48:25;;;;;;;;;5.00;5.00;;;;;16.61;70.73;102853.13;5085088;27;61923;-85
2022/01/30 00:50:51;;;;;;;;;6.00;1.50;;;;;16.51;70.82;102836.72;5084824;27;61974;-84
2022/01/30 00:53:17;;;;;;;;;5.50;5.50;;;;;16.50;70.86;102847.25;5099955;27;62196;-85
2022/01/30 00:55:43;;;;;;;;;3.75;3.75;;;;;16.48;70.74;102839.22;5083770;27;62391;-84
2022/01/30 00:58:08;;;;;;;;;5.50;3.50;;;;;16.40;71.08;102848.47;5085028;27;61737;-84
2022/01/30 01:00:35;;;;;;;;;6.75;5.00;;;;;16.25;71.78;102851.22;5084720;27;61723;-85
2022/01/30 01:03:01;;;;;;;;;6.75;5.00;;;;;16.25;71.36;102839.72;5085027;27;61932;-85
2022/01/30 01:05:28;;;;;;;;;9.25;5.50;;;;;16.23;71.35;102834.31;5083850;27;62985;-85
2022/01/30 01:07:56;;;;;;;;;5.50;5.00;;;;;16.15;71.81;102843.59;5084032;27;62080;-85
2022/01/30 01:23:22;;;;;;;;;8.00;5.00;;;;;16.19;71.38;102824.38;5084270;28;61843;-85
2022/01/30 01:23:48;;;;;;;;;9.50;5.50;;;;;16.24;71.23;102819.31;5084105;27;62098;-85
2022/01/30 01:26:15;;;;;;;;;6.25;3.00;;;;;16.28;71.12;102822.25;5099237;27;63943;-85
2022/01/30 01:28:40;;;;;;;;;5.00;5.00;;;;;16.31;71.01;102824.16;5083161;28;61775;-85
2022/01/30 01:31:06;;;;;;;;;12.50;6.50;;;;;16.38;70.83;102817.44;5117119;27;62166;-85
2022/01/30 01:33:53;;;;;;;;;10.25;7.50;;;;;16.36;70.82;102802.34;5099333;27;62187;-85
2022/01/30 01:36:19;;;;;;;;;11.50;6.25;;;;;16.34;71.02;102819.91;5083307;27;62597;-85
2022/01/30 01:38:44;;;;;;;;;8.00;6.75;;;;;16.34;71.19;102809.28;5083854;27;62853;-85
2022/01/30 01:41:11;;;;;;;;;6.50;6.50;;;;;16.39;70.87;102812.22;5099994;27;61915;-85
2022/01/30 01:43:38;;;;;;;;;7.25;5.00;;;;;16.41;70.89;102820.22;5100134;27;62166;-85
2022/01/30 01:46:12;;;;;;;;;8.50;6.25;;;;;16.47;70.54;102821.47;5083506;28;61747;-85
2022/01/30 01:48:37;;;;;;;;;8.25;5.00;;;;;16.45;70.80;102823.16;5084270;28;61935;-85
2022/01/30 01:51:14;;;;;;;;;8.00;6.00;;;;;16.42;70.71;102830.03;5083507;28;62072;-85
2022/01/30 01:53:40;;;;;;;;;6.50;6.50;;;;;16.45;70.60;102824.88;5083849;28;61984;-85
2022/01/30 01:56:05;;;;;;;;;10.25;9.25;;;;;16.38;70.82;102820.97;5081545;28;63577;-85
2022/01/30 01:58:30;;;;;;;;;10.00;7.00;;;;;16.35;70.98;102831.44;5083998;28;61799;-85
2022/01/30 02:00:59;;;;;;;;;9.75;7.25;;;;;16.41;70.87;102823.81;5083794;28;61677;-85
2022/01/30 02:03:26;;;;;;;;;8.50;5.75;;;;;16.33;70.98;102830.44;5084224;28;61859;-85
2022/01/30 02:05:56;;;;;;;;;6.50;6.00;;;;;16.21;71.44;102824.47;5082519;28;62724;-85
2022/01/30 02:08:32;;;;;;;;;8.25;6.00;;;;;16.26;71.37;102837.16;5083459;28;61881;-85
2022/01/30 02:13:56;;;;;;;;;9.25;7.00;;;;;16.27;71.15;102828.34;5083671;27;61884;-85
2022/01/30 02:27:18;;;;;;;;;9.75;7.00;;;;;16.20;71.43;102805.03;5039806;28;62004;-85
2022/01/30 02:29:43;;;;;;;;;11.00;8.00;;;;;16.08;71.54;102815.84;5040443;28;61996;-85
2022/01/30 02:32:09;;;;;;;;;13.25;9.75;;;;;16.07;71.82;102813.13;5040114;28;62064;-85
2022/01/30 02:34:34;;;;;;;;;10.50;6.75;;;;;16.02;71.92;102815.50;5023439;28;61902;-85
2022/01/30 02:37:00;;;;;;;;;9.75;9.50;;;;;16.11;71.50;102820.41;5049313;28;62053;-85
2022/01/30 02:39:27;;;;;;;;;14.25;9.00;;;;;16.12;71.72;102814.28;5043041;28;62130;-85
2022/01/30 02:41:53;;;;;;;;;16.00;12.75;;;;;16.09;71.57;102815.03;5060562;28;61871;-85
2022/01/30 02:44:28;;;;;;;;;14.50;7.50;;;;;16.11;71.64;102815.09;5043192;28;61784;-85
2022/01/30 02:46:54;;;;;;;;;16.75;11.75;;;;;16.12;71.70;102824.88;5042387;28;64172;-85
2022/01/30 02:51:51;;;;;;;;;14.50;9.50;;;;;16.12;71.55;102817.84;5060334;28;62028;-85
2022/01/30 02:54:17;;;;;;;;;15.00;11.00;;;;;16.15;71.48;102807.44;5043259;28;61960;-85
2022/01/30 02:56:43;;;;;;;;;9.50;9.50;;;;;16.21;71.37;102824.47;5059247;28;61941;-85
2022/01/30 02:59:09;;;;;;;;;11.75;9.00;;;;;16.17;71.15;102819.84;5074506;28;61740;-84
2022/01/30 03:01:34;;;;;;;;;13.00;8.50;;;;;16.20;71.02;102826.22;5082518;28;61897;-84
2022/01/30 03:04:00;;;;;;;;;13.25;11.75;;;;;16.23;71.04;102814.88;5083156;27;62101;-85
2022/01/30 03:06:27;;;;;;;;;15.00;10.00;;;;;16.26;70.84;102826.56;5082298;27;61911;-85
2022/01/30 03:08:52;;;;;;;;;9.00;9.00;;;;;16.30;70.78;102827.59;5080871;28;61792;-85
2022/01/30 03:11:18;;;;;;;;;11.50;11.00;;;;;16.25;70.56;102840.63;5081107;28;62170;-85
2022/01/30 03:13:43;;;;;;;;;19.75;8.50;;;;;16.26;70.63;102831.84;5081670;28;62043;-85
2022/01/30 03:16:09;;;;;;;;;10.25;8.75;;;;;16.18;70.71;102819.03;5081682;28;61877;-84
2022/01/30 03:18:36;;;;;;;;;11.75;7.75;;;;;16.19;70.87;102819.06;5082861;28;61916;-85
2022/01/30 03:21:02;;;;;;;;;12.75;9.75;;;;;16.28;70.40;102818.66;5080938;28;61866;-85
2022/01/30 03:23:28;;;;;;;;;13.25;9.00;;;;;16.35;70.34;102831.44;5082741;28;61925;-85
2022/01/30 03:25:57;;;;;;;;;13.75;8.00;;;;;16.34;70.10;102826.94;5081710;27;61838;-85
2022/01/30 03:28:24;;;;;;;;;9.50;9.00;;;;;16.33;70.04;102825.16;5082447;28;61831;-85
2022/01/30 03:30:54;;;;;;;;;14.00;7.75;;;;;16.30;70.15;102825.91;5082047;28;61886;-84
2022/01/30 03:33:20;;;;;;;;;10.00;6.75;;;;;16.38;69.75;102831.59;5081077;28;61789;-85
2022/01/30 03:35:45;;;;;;;;;12.50;9.75;;;;;16.37;69.61;102821.81;5081996;28;62780;-85
2022/01/30 03:38:11;;;;;;;;;13.25;8.25;;;;;16.36;69.56;102828.84;5081632;27;61809;-85
2022/01/30 03:40:36;;;;;;;;;13.75;6.00;;;;;16.39;69.42;102821.88;5082384;27;61877;-83
2022/01/30 03:43:03;;;;;;;;;13.00;9.25;;;;;16.39;69.42;102833.44;5082851;27;62074;-85
2022/01/30 03:45:29;;;;;;;;;12.25;9.25;;;;;16.39;69.03;102829.84;5097235;27;63722;-84
2022/01/30 03:47:56;;;;;;;;;6.75;6.75;;;;;16.41;68.96;102828.19;5082425;27;61930;-83
2022/01/30 03:50:22;;;;;;;;;19.25;9.00;;;;;16.38;68.42;102826.28;5082226;27;61837;-85
2022/01/30 03:52:48;;;;;;;;;7.50;6.75;;;;;16.40;68.66;102818.44;5097976;27;62102;-85
2022/01/30 03:55:14;;;;;;;;;13.75;8.50;;;;;16.43;68.64;102818.56;5081050;28;61865;-84
2022/01/30 03:57:39;;;;;;;;;12.50;9.00;;;;;16.39;68.39;102806.91;5084836;27;61870;-85
2022/01/30 04:00:06;;;;;;;;;9.75;7.25;;;;;16.43;68.21;102816.84;5101135;27;61702;-85
2022/01/30 04:02:32;;;;;;;;;8.50;7.75;;;;;16.42;68.04;102819.41;5085883;27;62020;-85
2022/01/30 04:04:57;;;;;;;;;6.25;6.25;;;;;16.36;68.40;102812.03;5100714;27;64774;-85
2022/01/30 04:07:23;;;;;;;;;10.75;5.75;;;;;16.41;68.14;102822.88;5100835;27;62157;-85
2022/01/30 04:09:49;;;;;;;;;12.25;7.00;;;;;16.40;67.52;102823.72;5085491;27;61705;-85
2022/01/30 04:12:15;;;;;;;;;13.25;8.50;;;;;16.47;67.39;102826.75;5085846;27;61790;-85
2022/01/30 04:14:42;;;;;;;;;8.50;6.75;;;;;16.52;67.49;102829.69;5084720;27;61844;-84
2022/01/30 04:17:13;;;;;;;;;8.00;6.25;;;;;16.55;66.98;102828.09;5101306;27;61897;-85
2022/01/30 04:19:39;;;;;;;;;6.00;6.00;;;;;16.54;67.13;102831.59;5085558;27;61849;-84
2022/01/30 04:22:05;;;;;;;;;6.25;6.25;;;;;16.54;66.70;102841.28;5085696;27;62067;-85
2022/01/30 04:24:32;;;;;;;;;7.50;7.25;;;;;16.53;66.72;102831.50;5084794;27;62109;-85
2022/01/30 04:26:57;;;;;;;;;8.00;6.75;;;;;16.55;66.59;102835.13;5085274;27;62082;-85
2022/01/30 04:29:23;;;;;;;;;10.00;9.00;;;;;16.54;66.07;102842.19;5084926;27;61803;-85
2022/01/30 04:31:49;;;;;;;;;4.00;4.00;;;;;16.50;65.05;102847.25;5085532;28;62157;-85
2022/01/30 04:34:15;;;;;;;;;6.25;5.50;;;;;16.49;64.30;102843.66;5084776;28;62813;-85
2022/01/30 04:36:55;;;;;;;;;8.00;4.50;;;;;16.46;63.41;102832.00;5096855;27;62037;-85
2022/01/30 04:42:24;;;;;;;;;7.25;4.75;;;;;16.41;62.76;102850.31;5085649;27;61843;-85
2022/01/30 04:58:34;;;;;;;;;5.25;2.50;;;;;16.25;61.20;102858.25;5084124;27;61998;-85
2022/01/30 05:01:09;;;;;;;;;6.00;2.00;;;;;16.24;59.86;102860.00;5083546;28;62039;-85
2022/01/30 05:06:11;;;;;;;;;6.75;2.50;;;;;16.19;58.93;102861.47;5084222;28;61813;-85
2022/01/30 05:08:37;;;;;;;;;5.50;1.00;;;;;16.18;58.31;102856.13;5083358;28;61730;-85
2022/01/30 05:11:07;;;;;;;;;2.50;1.75;;;;;16.13;57.72;102863.78;5083572;28;61833;-85
2022/01/30 05:13:35;;;;;;;;;1.50;1.50;;;;;16.12;57.02;102873.47;5084450;28;61758;-85
2022/01/30 05:16:01;;;;;;;;;4.75;2.00;;;;;16.10;57.60;102871.59;5082887;28;64771;-85
2022/01/30 05:18:29;;;;;;;;;5.75;2.00;;;;;16.15;56.75;102878.03;5084574;27;61844;-85
2022/01/30 05:20:56;;;;;;;;;2.00;1.00;;;;;16.11;57.13;102871.69;5083029;28;61879;-85
2022/01/30 05:23:22;;;;;;;;;4.25;1.00;;;;;16.19;57.17;102871.19;5084431;28;61811;-85
2022/01/30 05:25:51;;;;;;;;;7.50;5.25;;;;;16.19;57.06;102869.44;5083462;28;61902;-85
2022/01/30 05:28:18;;;;;;;;;5.25;1.75;;;;;16.23;56.13;102866.13;5084272;28;61834;-85
2022/01/30 05:30:44;;;;;;;;;3.75;1.00;;;;;16.22;56.14;102876.66;5084082;28;62173;-85
2022/01/30 05:33:11;;;;;;;;;4.75;1.25;;;;;16.18;56.10;102879.97;5100275;27;62208;-85
2022/01/30 05:35:37;;;;;;;;;2.75;1.50;;;;;16.23;56.14;102887.31;5083774;28;61867;-85
2022/01/30 05:38:04;;;;;;;;;2.25;2.25;;;;;16.24;56.50;102889.16;5082695;27;62030;-85
2022/01/30 05:40:31;;;;;;;;;10.25;1.00;;;;;16.26;56.00;102887.50;5099957;27;61986;-85
2022/01/30 05:42:57;;;;;;;;;1.75;1.00;;;;;16.22;55.51;102884.59;5082822;28;62160;-85
2022/01/30 05:47:55;;;;;;;;;8.00;2.00;;;;;16.20;55.93;102888.91;5084145;28;61927;-85
2022/01/30 05:50:21;;;;;;;;;2.00;1.00;;;;;16.20;55.62;102896.88;5082912;28;61864;-85
2022/01/30 05:52:47;;;;;;;;;6.75;2.50;;;;;16.15;55.69;102891.28;5082433;28;62073;-84
2022/01/30 05:55:12;;;;;;;;;4.25;2.00;;;;;16.13;55.42;102888.56;5082880;28;62389;-85
2022/01/30 05:57:38;;;;;;;;;6.00;1.00;;;;;16.15;55.60;102885.97;5081962;28;61839;-85
2022/01/30 06:00:06;;;;;;;;;2.00;1.00;;;;;16.15;55.40;102892.22;5084125;28;61713;-85
2022/01/30 06:02:32;;;;;;;;;7.00;1.25;;;;;16.13;55.69;102898.22;5084527;28;61887;-85
2022/01/30 06:04:58;;;;;;;;;2.75;2.00;;;;;16.09;55.46;102897.16;5083288;28;62896;-85
2022/01/30 06:07:29;;;;;;;;;3.50;1.75;;;;;16.04;55.34;102898.63;5082149;28;62044;-85
2022/01/30 06:09:54;;;;;;;;;6.00;3.00;;;;;15.99;54.50;102896.56;5083371;28;62067;-85
2022/01/30 06:12:20;;;;;;;;;4.75;2.75;;;;;15.95;56.38;102906.97;5083862;28;61866;-85
2022/01/30 06:14:46;;;;;;;;;4.00;2.50;;;;;15.91;54.87;102899.69;5081690;28;63407;-85
2022/01/30 06:17:13;;;;;;;;;2.25;2.00;;;;;15.92;55.01;102912.13;5084037;28;61891;-85
2022/01/30 06:19:38;;;;;;;;;10.25;2.75;;;;;15.87;54.76;102904.72;5083373;28;61833;-85
2022/01/30 06:22:04;;;;;;;;;1.25;1.25;;;;;15.85;54.87;102914.31;5084059;28;62031;-85
2022/01/30 06:24:29;;;;;;;;;6.75;2.00;;;;;15.82;55.07;102923.00;5082811;28;61946;-85
2022/01/30 06:26:55;;;;;;;;;3.50;2.50;;;;;15.74;53.72;102914.63;5082404;28;61744;-85
2022/01/30 06:29:20;;;;;;;;;5.00;3.25;;;;;15.79;54.38;102921.91;5082349;28;61966;-85
2022/01/30 06:31:46;;;;;;;;;3.00;3.00;;;;;15.77;54.74;102916.53;5083744;28;62118;-85
2022/01/30 06:34:11;;;;;;;;;4.25;1.75;;;;;15.79;54.33;102927.19;5098685;27;64716;-85
2022/01/30 06:36:36;;;;;;;;;3.25;2.25;;;;;15.76;54.47;102925.28;5083289;27;61970;-85
2022/01/30 06:39:03;;;;;;;;;1.75;1.50;;;;;15.68;54.09;102924.84;5082565;27;62119;-85
2022/01/30 06:41:28;;;;;;;;;2.50;2.00;;;;;15.62;54.22;102928.88;5083467;27;61765;-85
2022/01/30 06:43:54;;;;;;;;;3.00;2.00;;;;;15.60;54.51;102923.47;5082744;27;61832;-85
2022/01/30 06:46:19;;;;;;;;;1.75;1.75;;;;;15.50;54.15;102914.06;5083084;27;62051;-85
2022/01/30 06:48:45;;;;;;;;;3.50;2.25;;;;;15.46;54.36;102917.34;5098989;27;61989;-85
2022/01/30 06:51:10;;;;;;;;;8.00;2.25;;;;;15.46;54.88;102925.28;5083206;27;62006;-85
2022/01/30 06:53:36;;;;;;;;;6.00;1.75;;;;;15.41;54.41;102929.41;5080141;28;63702;-84
2022/01/30 06:56:01;;;;;;;;;8.50;4.25;;;;;15.32;54.65;102920.94;5082580;27;62055;-85
2022/01/30 06:58:27;;;;;;;;;4.50;1.00;;;;;15.31;54.91;102929.69;5083399;27;61933;-85
2022/01/30 07:00:52;;;;;;;;;2.00;0.75;;;;;15.28;54.67;102932.16;5083092;27;61847;-85
2022/01/30 07:03:17;;;;;;;;;2.75;2.00;;;;;15.26;55.17;102929.41;5082287;27;61728;-85
2022/01/30 07:05:43;;;;;;;;;2.25;1.00;;;;;15.19;54.50;102935.19;5082890;27;62027;-85
2022/01/30 07:08:09;;;;;;;;;4.50;2.00;;;;;15.13;55.06;102929.50;5080641;28;61859;-84
2022/01/30 07:10:34;;;;;;;;;5.25;2.00;;;;;15.13;54.78;102938.34;5081755;28;62025;-85
2022/01/30 07:13:00;;;;;;;;;2.00;2.00;;;;;15.10;55.28;102934.59;5082196;28;61803;-80
2022/01/30 07:15:25;;;;;;;;;6.00;4.50;;;;;15.06;55.23;102935.22;5082753;27;61966;-80
2022/01/30 07:17:51;;;;;;;;;8.75;7.75;;;;;15.04;55.66;102936.88;5098804;27;61879;-78
2022/01/30 07:20:16;;;;;;;;;9.25;3.50;;;;;14.99;55.83;102948.91;5082744;27;62589;-79
2022/01/30 07:22:42;;;;;;;;;6.50;2.25;;;;;14.91;56.07;102938.78;5081618;27;61839;-82
2022/01/30 07:25:08;;;;;;;;;6.75;2.00;;;;;14.86;55.27;102944.59;5080480;28;61763;-82
2022/01/30 07:27:37;;;;;;;;;1.25;1.25;;;;;14.81;55.25;102946.06;5082775;27;61926;-80
2022/01/30 07:30:06;;;;;;;;;3.75;1.75;;;;;14.79;56.38;102955.63;5082678;27;61883;-81
2022/01/30 07:32:32;;;;;;;;;5.00;2.00;;;;;14.81;55.93;102961.94;5081315;27;61763;-81
2022/01/30 07:34:58;;;;;;;;;7.75;7.75;;;;;14.79;56.19;102971.50;5082658;28;61875;-81
2022/01/30 07:37:24;;;;;;;;;12.75;7.75;;;;;14.79;56.80;102972.41;5090639;27;61827;-81
2022/01/30 07:39:50;;;;;;;;;7.75;5.00;;;;;14.78;56.76;102973.22;5082042;28;61895;-81
2022/01/30 07:42:15;;;;;;;;;17.25;13.75;;;;;14.83;56.68;102979.72;5080046;28;63791;-79
2022/01/30 07:44:41;;;;;;;;;12.50;9.00;;;;;14.85;56.12;102979.81;5082398;28;61701;-81
2022/01/30 07:47:14;;;;;;;;;13.75;6.25;;;;;14.85;56.44;102967.50;5082238;28;61917;-80
2022/01/30 07:49:52;;;;;;;;;10.00;6.75;;;;;14.93;56.01;102981.16;5082435;28;61900;-81
2022/01/30 07:52:22;;;;;;;;;3.75;2.50;;;;;14.95;55.82;102983.91;5079845;27;61780;-79
2022/01/30 07:54:49;;;;;;;;;9.25;4.00;;;;;14.95;55.12;102989.22;5097704;27;61917;-80
2022/01/30 07:57:15;;;;;;;;;9.50;5.00;;;;;14.98;55.57;102986.78;5081857;28;61737;-80
2022/01/30 07:59:41;;;;;;;;;14.00;6.00;;;;;15.00;55.53;102990.44;5082075;28;61919;-79
2022/01/30 08:02:07;;;;;;;;;5.75;5.75;;;;;15.03;55.75;102986.22;5081872;28;62253;-80
2022/01/30 08:04:34;;;;;;;;;5.00;3.00;;;;;15.06;55.47;102996.06;5082261;28;61845;-80
2022/01/30 08:07:00;;;;;;;;;4.75;4.25;;;;;15.04;55.31;102982.78;5081688;28;61852;-80
2022/01/30 08:09:27;;;;;;;;;6.25;5.00;;;;;15.10;55.00;103000.72;5097591;27;62069;-80
2022/01/30 08:11:52;;;;;;;;;7.50;3.00;;;;;15.13;55.01;103003.59;5081255;28;61818;-79
2022/01/30 08:14:18;;;;;;;;;8.25;4.50;;;;;15.17;54.59;102999.38;5081949;27;62040;-80
2022/01/30 08:16:43;;;;;;;;;9.50;6.75;;;;;15.18;54.68;103002.13;5082237;28;61866;-79
2022/01/30 08:19:09;;;;;;;;;10.00;7.75;;;;;15.16;54.69;102995.81;5098053;27;61992;-79
2022/01/30 08:21:34;;;;;;;;;13.00;7.25;;;;;15.17;54.46;103002.00;5080550;28;62637;-81
2022/01/30 08:24:00;;;;;;;;;8.25;5.75;;;;;15.15;54.45;102998.41;5081888;28;62153;-79
2022/01/30 08:26:25;;;;;;;;;7.50;3.50;;;;;15.13;54.51;103003.59;5081346;28;61840;-79
2022/01/30 08:28:50;;;;;;;;;8.50;5.00;;;;;15.08;54.19;102997.06;5080690;28;61723;-79
2022/01/30 08:31:16;;;;;;;;;11.75;8.25;;;;;15.08;54.45;103002.38;5080947;28;62945;-84
2022/01/30 08:33:42;;;;;;;;;17.50;13.00;;;;;15.06;54.52;102997.00;5081588;28;61716;-78
2022/01/30 08:36:07;;;;;;;;;12.75;10.25;;;;;15.02;54.43;102995.00;5078649;27;61868;-80
2022/01/30 08:38:33;;;;;;;;;13.25;11.50;;;;;15.03;54.75;102991.50;5059881;28;62224;-85
2022/01/30 08:40:58;;;;;;;;;11.00;9.00;;;;;15.09;54.24;102993.63;5059519;28;64013;-77
2022/01/30 08:43:24;;;;;;;;;8.75;7.75;;;;;15.12;54.61;102991.16;5062157;28;61978;-83
2022/01/30 08:45:50;;;;;;;;;7.00;6.25;;;;;15.19;54.46;102992.44;5064779;28;61901;-77
2022/01/30 08:48:17;;;;;;;;;12.75;10.25;;;;;15.26;54.01;102990.28;5063752;28;61890;-77
2022/01/30 08:50:43;;;;;;;;;10.00;7.75;;;;;15.33;54.28;102987.16;5061788;28;61782;-76
2022/01/30 08:53:08;;;;;;;;;20.25;10.00;;;;;15.37;53.42;102985.63;5064427;28;61986;-76
2022/01/30 08:55:33;;;;;;;;;11.25;7.75;;;;;15.42;54.02;102996.50;5062700;28;61921;-76
2022/01/30 08:58:07;;;;;;;;;4.50;3.75;;;;;15.46;53.96;103002.06;5064819;28;61858;-75
2022/01/30 09:00:33;;;;;;;;;10.00;6.50;;;;;15.49;54.31;103006.66;5063564;28;62238;-75
2022/01/30 09:02:59;;;;;;;;;8.25;6.75;;;;;15.54;53.57;102994.59;5064665;28;61709;-76
2022/01/30 09:05:25;;;;;;;;;9.25;6.25;;;;;15.59;53.29;103000.16;5079631;28;61930;-76
2022/01/30 09:07:50;;;;;;;;;10.25;6.00;;;;;15.62;53.25;102998.59;5064463;28;61851;-78
2022/01/30 09:10:16;;;;;;;;;5.25;5.00;;;;;15.61;52.21;103002.06;5077218;28;64913;-76
2022/01/30 09:12:42;;;;;;;;;4.00;4.00;;;;;15.65;52.41;103000.50;5081165;28;62062;-76
2022/01/30 09:15:11;;;;;;;;;7.25;2.25;;;;;15.69;53.00;103003.44;5084716;28;61741;-77
2022/01/30 09:17:37;;;;;;;;;5.00;4.00;;;;;15.70;52.34;103002.63;5083015;28;61825;-76
2022/01/30 09:20:04;;;;;;;;;2.75;2.75;;;;;15.76;52.36;102999.44;5081751;28;64895;-76
2022/01/30 09:22:31;;;;;;;;;2.00;2.00;;;;;15.77;51.88;103003.00;5083166;28;61728;-78
2022/01/30 09:24:56;;;;;;;;;5.75;2.50;;;;;15.79;51.31;102994.34;5081518;28;61959;-78
2022/01/30 09:27:22;;;;;;;;;2.50;2.50;;;;;15.78;51.49;102995.16;5097079;27;62672;-78
2022/01/30 09:29:47;;;;;;;;;7.25;5.50;;;;;15.86;52.13;103008.84;5081377;28;62738;-78
2022/01/30 09:32:14;;;;;;;;;5.75;2.00;;;;;15.88;51.18;103007.19;5089485;27;61918;-78
2022/01/30 09:34:39;;;;;;;;;13.25;8.75;;;;;15.91;51.68;103005.63;5081490;27;61927;-78
2022/01/30 09:37:06;;;;;;;;;10.25;4.50;;;;;15.94;51.32;103015.50;5083742;27;62615;-79
2022/01/30 09:39:32;;;;;;;;;5.00;5.00;;;;;15.95;51.58;103014.69;5082033;28;65040;-77
2022/01/30 09:41:58;;;;;;;;;7.50;4.00;;;;;15.99;51.13;103016.69;5084260;28;62082;-76
2022/01/30 09:44:24;;;;;;;;;5.00;3.25;;;;;15.97;50.92;103012.13;5082038;28;61855;-77
2022/01/30 09:46:53;;;;;;;;;7.00;3.50;;;;;15.98;50.80;103014.88;5081733;28;61909;-76
2022/01/30 09:49:26;;;;;;;;;4.75;2.50;;;;;16.01;50.87;103022.97;5081871;27;61673;-76
2022/01/30 09:51:53;;;;;;;;;5.00;0.50;;;;;16.04;51.13;103027.53;5097811;27;61998;-76
2022/01/30 09:54:19;;;;;;;;;5.25;3.50;;;;;16.04;50.62;103022.25;5082289;27;62326;-82
2022/01/30 09:56:45;;;;;;;;;7.00;4.50;;;;;16.05;50.59;103010.84;5082247;28;61916;-78
2022/01/30 09:59:10;;;;;;;;;4.00;2.25;;;;;16.11;50.82;103019.09;5082375;27;61811;-78
2022/01/30 10:01:37;;;;;;;;;3.50;3.50;;;;;16.16;50.96;103020.31;5083616;28;62266;-78
2022/01/30 10:04:04;;;;;;;;;10.75;7.25;;;;;16.23;50.53;103022.47;5082200;28;61889;-78
2022/01/30 10:06:37;;;;;;;;;8.00;5.50;;;;;16.22;49.78;103022.41;5082897;27;62163;-78
2022/01/30 10:09:37;;;;;;;;;4.50;2.50;;;;;16.26;50.07;103016.44;5080496;28;61863;-78
2022/01/30 10:12:20;;;;;;;;;6.50;2.00;;;;;16.26;50.17;103029.69;5074982;28;62059;-79
2022/01/30 10:15:04;;;;;;;;;7.00;1.75;;;;;16.36;49.80;103024.09;5082560;28;62146;-80
2022/01/30 10:17:37;;;;;;;;;7.75;6.75;;;;;16.41;50.10;103017.31;5082803;28;61707;-75
2022/01/30 10:20:12;;;;;;;;;11.75;6.75;;;;;16.44;50.48;103009.53;5097762;27;63667;-76
2022/01/30 10:23:08;;;;;;;;;4.50;3.00;;;;;16.51;50.40;103022.28;5081349;28;62119;-76
2022/01/30 10:25:37;;;;;;;;;3.75;3.50;;;;;16.58;49.77;103018.25;5082631;28;61917;-76
2022/01/30 10:28:15;;;;;;;;;5.50;2.00;;;;;16.67;49.83;103020.53;5082401;27;61768;-77
2022/01/30 10:30:58;;;;;;;;;6.00;4.50;;;;;16.77;49.42;103014.88;5079357;28;62706;-79
2022/01/30 10:33:46;;;;;;;;;4.50;2.50;;;;;16.85;48.81;103010.03;5081349;28;62034;-80
2022/01/30 10:36:18;;;;;;;;;8.25;4.00;;;;;16.93;49.10;103000.75;5081601;27;61951;-87
2022/01/30 10:38:52;;;;;;;;;9.75;6.00;;;;;17.00;49.11;103000.25;5083347;27;62203;-88
2022/01/30 10:41:30;;;;;;;;;6.00;3.00;;;;;17.11;48.78;103011.44;5082787;28;61854;-89
2022/01/30 10:44:04;;;;;;;;;5.00;5.00;;;;;17.20;49.11;103005.69;5083330;28;61848;-79
2022/01/30 10:46:46;;;;;;;;;3.75;2.50;;;;;17.25;48.49;103005.13;5082876;28;61835;-80
2022/01/30 10:49:16;;;;;;;;;6.50;6.00;;;;;17.26;47.46;102996.31;5081983;28;62236;-79
2022/01/30 10:51:58;;;;;;;;;15.50;5.75;;;;;17.31;47.84;103000.13;5080171;28;63022;-79
2022/01/30 10:54:29;;;;;;;;;5.75;5.00;;;;;17.44;47.40;103001.69;5081445;28;61694;-78
2022/01/30 10:57:04;;;;;;;;;10.50;5.00;;;;;17.57;47.65;102996.16;5081673;27;61934;-80
2022/01/30 10:59:29;;;;;;;;;8.75;5.00;;;;;17.66;47.33;103005.44;5095559;27;62028;-76
2022/01/30 11:02:10;;;;;;;;;10.00;6.00;;;;;17.76;46.89;103002.44;5095117;27;61937;-78
2022/01/30 11:04:35;;;;;;;;;7.00;5.00;;;;;17.74;46.41;103006.75;5086858;27;62358;-82
2022/01/30 11:07:03;;;;;;;;;7.00;3.25;;;;;17.64;46.60;102997.38;5079011;27;61926;-82
2022/01/30 11:09:49;;;;;;;;;6.00;3.50;;;;;17.74;47.01;102998.78;5077550;28;61780;-81
2022/01/30 11:12:16;;;;;;;;;8.75;5.25;;;;;17.85;46.30;102991.38;5079454;28;61850;-82
2022/01/30 11:17:22;;;;;;;;;7.00;5.00;;;;;18.04;46.04;102980.81;5078691;28;61945;-79
2022/01/30 11:19:57;;;;;;;;;6.75;3.75;;;;;18.12;45.83;102981.19;5081034;27;61984;-79
2022/01/30 11:22:24;;;;;;;;;3.00;3.00;;;;;18.16;45.24;102983.16;5079509;28;61757;-78
2022/01/30 11:24:54;;;;;;;;;6.00;4.00;;;;;18.24;45.20;102983.53;5077007;28;61801;-80
2022/01/30 11:27:21;;;;;;;;;6.00;5.00;;;;;18.14;43.86;102972.44;5080272;27;61868;-79
2022/01/30 11:29:48;;;;;;;;;7.75;6.00;;;;;18.18;45.43;102971.75;5080676;27;62002;-79
2022/01/30 11:32:16;;;;;;;;;6.00;3.00;;;;;18.36;45.34;102965.53;5080024;27;61922;-81
2022/01/30 11:34:43;;;;;;;;;8.25;3.00;;;;;18.37;44.47;102957.59;5097151;27;61835;-83
2022/01/30 11:37:11;;;;;;;;;7.50;6.00;;;;;18.65;44.05;102964.19;5081031;27;61920;-79
2022/01/30 11:39:42;;;;;;;;;8.25;6.50;;;;;18.99;44.63;102956.03;5078486;27;61843;-83
2022/01/30 11:42:12;;;;;;;;;9.00;5.00;;;;;19.25;43.43;102945.63;5080653;28;63253;-83
2022/01/30 11:44:43;;;;;;;;;5.00;5.00;;;;;19.54;43.68;102957.53;5081321;28;61933;-80
2022/01/30 11:47:09;;;;;;;;;4.75;4.50;;;;;19.73;42.82;102943.28;5093670;27;62128;-84
2022/01/30 11:49:48;;;;;;;;;9.50;5.75;;;;;19.87;42.50;102941.16;5087064;27;61934;-83
2022/01/30 11:52:15;;;;;;;;;12.25;9.75;;;;;19.85;43.84;102939.28;5078336;28;62193;-83
2022/01/30 11:54:43;;;;;;;;;9.50;5.25;;;;;19.86;43.14;102939.34;5080900;27;61955;-86
2022/01/30 11:57:20;;;;;;;;;6.25;6.25;;;;;19.93;43.00;102937.84;5079615;28;61747;-82
2022/01/30 11:59:51;;;;;;;;;11.00;6.75;;;;;19.99;40.54;102930.09;5077915;28;62191;-82
2022/01/30 12:02:30;;;;;;;;;6.75;6.75;;;;;19.85;40.21;102926.84;5080934;28;61862;-79
2022/01/30 12:05:05;;;;;;;;;6.00;5.25;;;;;19.73;40.71;102913.03;5081836;28;61945;-80
2022/01/30 12:07:38;;;;;;;;;10.50;5.50;;;;;19.78;41.50;102919.47;5097381;27;61879;-80
2022/01/30 12:10:15;;;;;;;;;9.00;6.75;;;;;19.69;41.96;102919.97;5081821;28;61885;-80
2022/01/30 12:12:52;;;;;;;;;17.25;10.00;;;;;19.11;41.37;102920.13;5080974;28;62030;-80
2022/01/30 12:15:36;;;;;;;;;16.00;9.00;;;;;18.74;41.39;102927.38;5090816;27;62159;-83
2022/01/30 12:18:05;;;;;;;;;9.50;9.50;;;;;18.64;43.17;102911.84;5083688;28;62300;-79
2022/01/30 12:21:01;;;;;;;;;13.25;10.00;;;;;18.69;43.61;102906.72;5083989;28;62120;-83
2022/01/30 12:23:34;;;;;;;;;8.75;7.00;;;;;19.08;43.36;102894.31;5084152;28;63292;-80